sensor_id;sensor_type;location;lat;lon;timestamp;temperature;humidity
1063;DHT22;520;50.932;6.962;2023-05-18T00:05:51;13.30;58.80
1063;DHT22;520;50.932;6.962;2023-05-18T00:08:57;13.20;59.00
1063;DHT22;520;50.932;6.962;2023-05-18T00:12:02;13.20;59.90
1063;DHT22;520;50.932;6.962;2023-05-18T00:18:04;13.10;61.10
1063;DHT22;520;50.932;6.962;2023-05-18T00:20:39;13.10;61.00
1063;DHT22;520;50.932;6.962;2023-05-18T00:23:17;13.20;61.30
1063;DHT22;520;50.932;6.962;2023-05-18T00:26:05;13.10;61.50
1063;DHT22;520;50.932;6.962;2023-05-18T00:31:39;13.10;62.30
1063;DHT22;520;50.932;6.962;2023-05-18T00:34:34;13.10;62.80
1063;DHT22;520;50.932;6.962;2023-05-18T00:37:26;13.10;61.70
1063;DHT22;520;50.932;6.962;2023-05-18T00:40:13;13.00;61.60
1063;DHT22;520;50.932;6.962;2023-05-18T00:42:48;13.00;62.30
1063;DHT22;520;50.932;6.962;2023-05-18T00:45:29;13.00;62.20
1063;DHT22;520;50.932;6.962;2023-05-18T00:48:17;12.90;62.30
1063;DHT22;520;50.932;6.962;2023-05-18T00:50:57;12.80;62.20
1063;DHT22;520;50.932;6.962;2023-05-18T00:53:27;12.80;62.80
1063;DHT22;520;50.932;6.962;2023-05-18T00:56:39;12.70;62.80
1063;DHT22;520;50.932;6.962;2023-05-18T01:00:04;12.60;62.90
1063;DHT22;520;50.932;6.962;2023-05-18T01:03:19;12.60;62.90
1063;DHT22;520;50.932;6.962;2023-05-18T01:06:00;12.60;63.00
1063;DHT22;520;50.932;6.962;2023-05-18T01:12:20;12.50;62.80
1063;DHT22;520;50.932;6.962;2023-05-18T01:28:36;12.20;64.00
1063;DHT22;520;50.932;6.962;2023-05-18T01:31:46;12.20;64.00
1063;DHT22;520;50.932;6.962;2023-05-18T01:34:18;12.30;64.40
1063;DHT22;520;50.932;6.962;2023-05-18T01:37:04;12.30;63.80
1063;DHT22;520;50.932;6.962;2023-05-18T01:42:41;12.10;64.60
1063;DHT22;520;50.932;6.962;2023-05-18T01:45:40;12.00;65.10
1063;DHT22;520;50.932;6.962;2023-05-18T01:52:39;12.00;65.40
1063;DHT22;520;50.932;6.962;2023-05-18T01:55:41;11.90;66.10
1063;DHT22;520;50.932;6.962;2023-05-18T02:05:52;12.00;67.10
1063;DHT22;520;50.932;6.962;2023-05-18T02:09:14;12.00;65.90
1063;DHT22;520;50.932;6.962;2023-05-18T02:12:21;11.90;66.40
1063;DHT22;520;50.932;6.962;2023-05-18T02:15:23;11.90;66.80
1063;DHT22;520;50.932;6.962;2023-05-18T02:18:22;11.80;68.00
1063;DHT22;520;50.932;6.962;2023-05-18T02:21:13;11.90;66.80
1063;DHT22;520;50.932;6.962;2023-05-18T02:24:33;11.80;66.70
1063;DHT22;520;50.932;6.962;2023-05-18T02:27:52;11.70;67.20
1063;DHT22;520;50.932;6.962;2023-05-18T02:34:57;11.70;67.50
1063;DHT22;520;50.932;6.962;2023-05-18T02:38:00;11.70;67.90
1063;DHT22;520;50.932;6.962;2023-05-18T02:40:44;11.70;68.00
1063;DHT22;520;50.932;6.962;2023-05-18T02:50:22;11.70;68.10
1063;DHT22;520;50.932;6.962;2023-05-18T02:53:11;11.80;68.20
1063;DHT22;520;50.932;6.962;2023-05-18T02:59:45;11.80;68.20
1063;DHT22;520;50.932;6.962;2023-05-18T03:02:40;11.70;67.90
1063;DHT22;520;50.932;6.962;2023-05-18T03:05:40;11.60;68.50
1063;DHT22;520;50.932;6.962;2023-05-18T03:09:02;11.60;69.00
1063;DHT22;520;50.932;6.962;2023-05-18T03:12:12;11.50;69.00
1063;DHT22;520;50.932;6.962;2023-05-18T03:18:42;11.60;70.00
1063;DHT22;520;50.932;6.962;2023-05-18T03:21:35;11.60;70.20
1063;DHT22;520;50.932;6.962;2023-05-18T03:24:47;11.70;70.20
1063;DHT22;520;50.932;6.962;2023-05-18T03:27:48;11.60;69.40
1063;DHT22;520;50.932;6.962;2023-05-18T03:31:00;11.50;69.10
1063;DHT22;520;50.932;6.962;2023-05-18T03:34:03;11.40;70.00
1063;DHT22;520;50.932;6.962;2023-05-18T03:40:16;11.30;70.60
1063;DHT22;520;50.932;6.962;2023-05-18T03:43:42;11.30;71.00
1063;DHT22;520;50.932;6.962;2023-05-18T03:50:38;11.20;70.80
1063;DHT22;520;50.932;6.962;2023-05-18T03:53:49;11.20;71.60
1063;DHT22;520;50.932;6.962;2023-05-18T03:56:51;11.30;71.70
1063;DHT22;520;50.932;6.962;2023-05-18T04:00:13;11.40;70.40
1063;DHT22;520;50.932;6.962;2023-05-18T04:03:51;11.30;70.60
1063;DHT22;520;50.932;6.962;2023-05-18T04:06:46;11.30;70.60
1063;DHT22;520;50.932;6.962;2023-05-18T04:09:58;11.20;71.60
1063;DHT22;520;50.932;6.962;2023-05-18T04:12:42;11.40;71.30
1063;DHT22;520;50.932;6.962;2023-05-18T04:15:20;11.40;71.10
1063;DHT22;520;50.932;6.962;2023-05-18T04:18:03;11.30;71.20
1063;DHT22;520;50.932;6.962;2023-05-18T04:21:04;11.20;71.70
1063;DHT22;520;50.932;6.962;2023-05-18T04:39:12;11.10;74.10
1063;DHT22;520;50.932;6.962;2023-05-18T04:42:11;11.20;73.40
1063;DHT22;520;50.932;6.962;2023-05-18T04:48:40;11.10;74.30
1063;DHT22;520;50.932;6.962;2023-05-18T04:51:55;11.20;76.10
1063;DHT22;520;50.932;6.962;2023-05-18T04:54:35;11.30;76.80
1063;DHT22;520;50.932;6.962;2023-05-18T04:57:38;11.30;77.10
1063;DHT22;520;50.932;6.962;2023-05-18T05:04:24;11.70;75.70
1063;DHT22;520;50.932;6.962;2023-05-18T05:07:04;11.60;76.10
1063;DHT22;520;50.932;6.962;2023-05-18T05:09:54;11.60;77.20
1063;DHT22;520;50.932;6.962;2023-05-18T05:12:53;11.80;76.50
1063;DHT22;520;50.932;6.962;2023-05-18T05:15:40;11.80;76.80
1063;DHT22;520;50.932;6.962;2023-05-18T05:18:31;11.80;76.80
1063;DHT22;520;50.932;6.962;2023-05-18T05:21:15;11.80;76.30
1063;DHT22;520;50.932;6.962;2023-05-18T05:27:55;11.80;75.00
1063;DHT22;520;50.932;6.962;2023-05-18T05:38:14;12.10;73.80
1063;DHT22;520;50.932;6.962;2023-05-18T05:41:07;12.00;74.80
1063;DHT22;520;50.932;6.962;2023-05-18T05:43:44;12.10;75.50
1063;DHT22;520;50.932;6.962;2023-05-18T05:46:30;12.10;75.10
1063;DHT22;520;50.932;6.962;2023-05-18T05:49:07;12.00;75.50
1063;DHT22;520;50.932;6.962;2023-05-18T05:51:39;12.00;75.70
1063;DHT22;520;50.932;6.962;2023-05-18T05:54:28;12.00;75.40
1063;DHT22;520;50.932;6.962;2023-05-18T05:57:33;12.10;74.60
1063;DHT22;520;50.932;6.962;2023-05-18T06:00:28;12.00;74.80
1063;DHT22;520;50.932;6.962;2023-05-18T06:03:11;12.20;74.30
1063;DHT22;520;50.932;6.962;2023-05-18T06:05:49;12.40;73.70
1063;DHT22;520;50.932;6.962;2023-05-18T06:08:31;12.50;72.80
1063;DHT22;520;50.932;6.962;2023-05-18T06:11:08;12.30;72.40
1063;DHT22;520;50.932;6.962;2023-05-18T06:13:48;12.50;71.70
1063;DHT22;520;50.932;6.962;2023-05-18T06:16:57;12.40;71.40
1063;DHT22;520;50.932;6.962;2023-05-18T06:19:24;12.40;71.60
1063;DHT22;520;50.932;6.962;2023-05-18T06:21:51;12.40;72.10
1063;DHT22;520;50.932;6.962;2023-05-18T06:24:25;12.40;72.10
1063;DHT22;520;50.932;6.962;2023-05-18T06:26:55;12.80;71.90
1063;DHT22;520;50.932;6.962;2023-05-18T06:29:31;12.80;70.90
1063;DHT22;520;50.932;6.962;2023-05-18T06:32:15;12.90;69.60
1063;DHT22;520;50.932;6.962;2023-05-18T06:35:01;12.70;69.30
1063;DHT22;520;50.932;6.962;2023-05-18T06:37:44;12.90;69.60
1063;DHT22;520;50.932;6.962;2023-05-18T06:40:22;12.90;69.40
1063;DHT22;520;50.932;6.962;2023-05-18T06:43:06;13.00;68.30
1063;DHT22;520;50.932;6.962;2023-05-18T06:45:49;12.90;68.50
1063;DHT22;520;50.932;6.962;2023-05-18T06:48:27;12.90;69.60
1063;DHT22;520;50.932;6.962;2023-05-18T06:51:04;12.80;69.00
1063;DHT22;520;50.932;6.962;2023-05-18T06:53:34;12.90;68.70
1063;DHT22;520;50.932;6.962;2023-05-18T06:59:16;13.30;67.00
1063;DHT22;520;50.932;6.962;2023-05-18T07:01:49;13.50;66.20
1063;DHT22;520;50.932;6.962;2023-05-18T07:04:24;13.30;65.30
1063;DHT22;520;50.932;6.962;2023-05-18T07:07:02;13.30;65.30
1063;DHT22;520;50.932;6.962;2023-05-18T07:09:42;13.30;64.10
1063;DHT22;520;50.932;6.962;2023-05-18T07:12:41;13.10;64.00
1063;DHT22;520;50.932;6.962;2023-05-18T07:15:11;13.60;64.80
1063;DHT22;520;50.932;6.962;2023-05-18T07:18:10;13.70;64.70
1063;DHT22;520;50.932;6.962;2023-05-18T07:20:47;13.70;64.10
1063;DHT22;520;50.932;6.962;2023-05-18T07:23:39;14.20;64.40
1063;DHT22;520;50.932;6.962;2023-05-18T07:26:21;14.00;64.00
1063;DHT22;520;50.932;6.962;2023-05-18T07:29:06;13.80;63.60
1063;DHT22;520;50.932;6.962;2023-05-18T07:31:46;13.80;63.60
1063;DHT22;520;50.932;6.962;2023-05-18T07:34:16;14.10;64.30
1063;DHT22;520;50.932;6.962;2023-05-18T07:36:53;14.40;64.20
1063;DHT22;520;50.932;6.962;2023-05-18T07:39:24;14.40;63.30
1063;DHT22;520;50.932;6.962;2023-05-18T07:42:05;14.60;63.40
1063;DHT22;520;50.932;6.962;2023-05-18T07:44:58;15.10;61.70
1063;DHT22;520;50.932;6.962;2023-05-18T07:47:36;14.80;60.40
1063;DHT22;520;50.932;6.962;2023-05-18T07:50:15;15.20;59.70
1063;DHT22;520;50.932;6.962;2023-05-18T07:52:54;15.30;59.30
1063;DHT22;520;50.932;6.962;2023-05-18T07:58:55;15.20;60.20
1063;DHT22;520;50.932;6.962;2023-05-18T08:01:44;15.90;59.40
1063;DHT22;520;50.932;6.962;2023-05-18T08:04:18;16.40;57.00
1063;DHT22;520;50.932;6.962;2023-05-18T08:07:23;16.10;57.10
1063;DHT22;520;50.932;6.962;2023-05-18T08:10:25;17.30;56.10
1063;DHT22;520;50.932;6.962;2023-05-18T08:13:26;18.40;54.10
1063;DHT22;520;50.932;6.962;2023-05-18T08:16:40;18.20;52.80
1063;DHT22;520;50.932;6.962;2023-05-18T08:23:17;19.90;49.20
1063;DHT22;520;50.932;6.962;2023-05-18T08:26:10;21.20;47.40
1063;DHT22;520;50.932;6.962;2023-05-18T08:28:50;21.40;44.90
1063;DHT22;520;50.932;6.962;2023-05-18T08:32:00;22.20;44.50
1063;DHT22;520;50.932;6.962;2023-05-18T08:34:46;24.00;42.90
1063;DHT22;520;50.932;6.962;2023-05-18T08:37:45;26.60;38.30
1063;DHT22;520;50.932;6.962;2023-05-18T08:44:15;27.10;35.20
1063;DHT22;520;50.932;6.962;2023-05-18T08:47:37;26.20;35.70
1063;DHT22;520;50.932;6.962;2023-05-18T08:50:10;25.90;35.90
1063;DHT22;520;50.932;6.962;2023-05-18T08:53:25;26.00;36.10
1063;DHT22;520;50.932;6.962;2023-05-18T08:56:16;27.90;34.40
1063;DHT22;520;50.932;6.962;2023-05-18T09:02:40;28.60;32.20
1063;DHT22;520;50.932;6.962;2023-05-18T09:05:42;28.00;31.80
1063;DHT22;520;50.932;6.962;2023-05-18T09:08:39;27.10;32.30
1063;DHT22;520;50.932;6.962;2023-05-18T09:11:33;26.60;33.10
1063;DHT22;520;50.932;6.962;2023-05-18T09:14:33;26.20;33.00
1063;DHT22;520;50.932;6.962;2023-05-18T09:21:05;23.80;36.20
1063;DHT22;520;50.932;6.962;2023-05-18T09:23:51;24.00;36.00
1063;DHT22;520;50.932;6.962;2023-05-18T09:27:25;23.80;36.40
1063;DHT22;520;50.932;6.962;2023-05-18T09:30:41;23.50;36.30
1063;DHT22;520;50.932;6.962;2023-05-18T09:33:42;22.90;37.00
1063;DHT22;520;50.932;6.962;2023-05-18T09:39:41;21.70;38.80
1063;DHT22;520;50.932;6.962;2023-05-18T09:42:18;20.80;39.40
1063;DHT22;520;50.932;6.962;2023-05-18T09:45:14;20.70;40.10
1063;DHT22;520;50.932;6.962;2023-05-18T09:51:46;20.20;41.60
1063;DHT22;520;50.932;6.962;2023-05-18T09:54:25;20.60;41.20
1063;DHT22;520;50.932;6.962;2023-05-18T09:57:10;20.30;41.20
1063;DHT22;520;50.932;6.962;2023-05-18T10:00:14;20.30;41.40
1063;DHT22;520;50.932;6.962;2023-05-18T10:02:53;22.00;40.20
1063;DHT22;520;50.932;6.962;2023-05-18T10:05:50;23.50;38.00
1063;DHT22;520;50.932;6.962;2023-05-18T10:08:26;23.90;36.10
1063;DHT22;520;50.932;6.962;2023-05-18T10:11:03;24.60;35.60
1063;DHT22;520;50.932;6.962;2023-05-18T10:13:37;24.40;35.30
1063;DHT22;520;50.932;6.962;2023-05-18T10:16:19;24.80;35.00
1063;DHT22;520;50.932;6.962;2023-05-18T10:19:39;24.90;35.00
1063;DHT22;520;50.932;6.962;2023-05-18T10:22:49;25.50;34.70
1063;DHT22;520;50.932;6.962;2023-05-18T10:25:36;25.10;34.40
1063;DHT22;520;50.932;6.962;2023-05-18T10:35:08;25.50;34.80
1063;DHT22;520;50.932;6.962;2023-05-18T10:37:46;26.10;33.10
1063;DHT22;520;50.932;6.962;2023-05-18T10:40:39;25.70;33.80
1063;DHT22;520;50.932;6.962;2023-05-18T10:43:42;26.00;33.60
1063;DHT22;520;50.932;6.962;2023-05-18T10:46:36;26.00;33.50
1063;DHT22;520;50.932;6.962;2023-05-18T10:49:24;25.40;33.60
1063;DHT22;520;50.932;6.962;2023-05-18T10:52:03;26.20;33.70
1063;DHT22;520;50.932;6.962;2023-05-18T10:54:36;27.10;32.40
1063;DHT22;520;50.932;6.962;2023-05-18T10:57:19;26.10;32.50
1063;DHT22;520;50.932;6.962;2023-05-18T11:00:15;25.10;33.90
1063;DHT22;520;50.932;6.962;2023-05-18T11:03:22;24.30;35.20
1063;DHT22;520;50.932;6.962;2023-05-18T11:06:22;24.10;35.60
1063;DHT22;520;50.932;6.962;2023-05-18T11:09:03;24.70;35.10
1063;DHT22;520;50.932;6.962;2023-05-18T11:12:13;24.80;34.70
1063;DHT22;520;50.932;6.962;2023-05-18T11:15:10;25.20;35.00
1063;DHT22;520;50.932;6.962;2023-05-18T11:18:15;25.00;34.20
1063;DHT22;520;50.932;6.962;2023-05-18T11:24:51;25.90;33.60
1063;DHT22;520;50.932;6.962;2023-05-18T11:28:15;26.10;32.90
1063;DHT22;520;50.932;6.962;2023-05-18T11:39:37;26.90;31.80
1063;DHT22;520;50.932;6.962;2023-05-18T11:42:47;26.00;32.60
1063;DHT22;520;50.932;6.962;2023-05-18T11:49:55;24.30;34.20
1063;DHT22;520;50.932;6.962;2023-05-18T11:52:59;24.90;35.00
1063;DHT22;520;50.932;6.962;2023-05-18T11:56:18;25.50;33.80
1063;DHT22;520;50.932;6.962;2023-05-18T12:00:03;25.10;34.20
1063;DHT22;520;50.932;6.962;2023-05-18T12:03:28;25.50;33.70
1063;DHT22;520;50.932;6.962;2023-05-18T12:10:52;25.00;34.40
1063;DHT22;520;50.932;6.962;2023-05-18T12:13:55;25.30;33.70
1063;DHT22;520;50.932;6.962;2023-05-18T12:17:03;25.10;33.60
1063;DHT22;520;50.932;6.962;2023-05-18T12:20:09;25.20;34.50
1063;DHT22;520;50.932;6.962;2023-05-18T12:23:36;25.40;33.60
1063;DHT22;520;50.932;6.962;2023-05-18T12:27:10;25.60;32.80
1063;DHT22;520;50.932;6.962;2023-05-18T12:30:23;25.20;32.80
1063;DHT22;520;50.932;6.962;2023-05-18T12:41:41;24.50;33.70
1063;DHT22;520;50.932;6.962;2023-05-18T12:44:44;24.70;33.70
1063;DHT22;520;50.932;6.962;2023-05-18T12:48:18;24.80;34.00
1063;DHT22;520;50.932;6.962;2023-05-18T12:50:51;24.90;34.20
1063;DHT22;520;50.932;6.962;2023-05-18T12:53:50;25.30;33.40
1063;DHT22;520;50.932;6.962;2023-05-18T12:56:50;25.30;33.10
1063;DHT22;520;50.932;6.962;2023-05-18T13:00:19;25.20;33.30
1063;DHT22;520;50.932;6.962;2023-05-18T13:03:18;24.60;34.30
1063;DHT22;520;50.932;6.962;2023-05-18T13:06:04;25.30;35.20
1063;DHT22;520;50.932;6.962;2023-05-18T13:13:09;25.20;34.10
1063;DHT22;520;50.932;6.962;2023-05-18T13:19:26;25.10;34.00
1063;DHT22;520;50.932;6.962;2023-05-18T13:28:23;24.40;34.30
1063;DHT22;520;50.932;6.962;2023-05-18T13:31:38;24.20;34.60
1063;DHT22;520;50.932;6.962;2023-05-18T13:34:18;24.10;34.50
1063;DHT22;520;50.932;6.962;2023-05-18T13:40:07;23.90;34.60
1063;DHT22;520;50.932;6.962;2023-05-18T13:46:31;24.60;34.90
1063;DHT22;520;50.932;6.962;2023-05-18T13:49:08;25.00;34.40
1063;DHT22;520;50.932;6.962;2023-05-18T13:52:14;24.80;35.00
1063;DHT22;520;50.932;6.962;2023-05-18T13:55:24;24.30;34.60
1063;DHT22;520;50.932;6.962;2023-05-18T13:58:41;24.20;35.10
1063;DHT22;520;50.932;6.962;2023-05-18T14:02:09;23.70;36.10
1063;DHT22;520;50.932;6.962;2023-05-18T14:05:18;23.60;36.90
1063;DHT22;520;50.932;6.962;2023-05-18T14:08:02;23.90;37.90
1063;DHT22;520;50.932;6.962;2023-05-18T14:10:44;24.30;37.90
1063;DHT22;520;50.932;6.962;2023-05-18T14:13:53;24.70;37.30
1063;DHT22;520;50.932;6.962;2023-05-18T14:16:53;24.50;37.20
1063;DHT22;520;50.932;6.962;2023-05-18T14:19:59;24.30;37.70
1063;DHT22;520;50.932;6.962;2023-05-18T14:23:09;24.50;37.40
1063;DHT22;520;50.932;6.962;2023-05-18T14:25:53;24.40;36.80
1063;DHT22;520;50.932;6.962;2023-05-18T14:28:31;24.30;37.60
1063;DHT22;520;50.932;6.962;2023-05-18T14:32:09;24.50;38.10
1063;DHT22;520;50.932;6.962;2023-05-18T14:35:38;24.20;37.90
1063;DHT22;520;50.932;6.962;2023-05-18T14:38:51;23.60;38.90
1063;DHT22;520;50.932;6.962;2023-05-18T14:42:04;23.50;40.00
1063;DHT22;520;50.932;6.962;2023-05-18T14:55:58;23.50;39.20
1063;DHT22;520;50.932;6.962;2023-05-18T14:59:17;23.60;39.70
1063;DHT22;520;50.932;6.962;2023-05-18T15:02:01;23.30;39.70
1063;DHT22;520;50.932;6.962;2023-05-18T15:05:34;23.40;39.90
1063;DHT22;520;50.932;6.962;2023-05-18T15:09:04;23.20;40.30
1063;DHT22;520;50.932;6.962;2023-05-18T15:11:47;23.30;39.80
1063;DHT22;520;50.932;6.962;2023-05-18T15:18:31;23.40;41.30
1063;DHT22;520;50.932;6.962;2023-05-18T15:22:02;23.40;41.40
1063;DHT22;520;50.932;6.962;2023-05-18T15:25:58;22.90;41.80
1063;DHT22;520;50.932;6.962;2023-05-18T15:29:44;23.10;42.00
1063;DHT22;520;50.932;6.962;2023-05-18T15:33:28;23.10;41.80
1063;DHT22;520;50.932;6.962;2023-05-18T15:36:40;23.10;41.80
1063;DHT22;520;50.932;6.962;2023-05-18T15:39:32;23.10;41.60
1063;DHT22;520;50.932;6.962;2023-05-18T15:42:30;23.30;41.90
1063;DHT22;520;50.932;6.962;2023-05-18T15:45:18;23.10;42.90
1063;DHT22;520;50.932;6.962;2023-05-18T15:48:29;23.10;42.60
1063;DHT22;520;50.932;6.962;2023-05-18T15:51:20;22.90;42.90
1063;DHT22;520;50.932;6.962;2023-05-18T15:54:44;22.80;43.50
1063;DHT22;520;50.932;6.962;2023-05-18T15:57:31;22.90;43.20
1063;DHT22;520;50.932;6.962;2023-05-18T16:00:48;22.80;43.00
1063;DHT22;520;50.932;6.962;2023-05-18T16:04:18;22.90;43.50
1063;DHT22;520;50.932;6.962;2023-05-18T16:07:42;22.70;43.80
1063;DHT22;520;50.932;6.962;2023-05-18T16:14:48;22.60;44.30
1063;DHT22;520;50.932;6.962;2023-05-18T16:18:11;22.80;44.00
1063;DHT22;520;50.932;6.962;2023-05-18T16:21:32;22.80;43.50
1063;DHT22;520;50.932;6.962;2023-05-18T16:24:40;22.50;44.10
1063;DHT22;520;50.932;6.962;2023-05-18T16:32:42;22.30;43.90
1063;DHT22;520;50.932;6.962;2023-05-18T16:35:32;22.10;45.20
1063;DHT22;520;50.932;6.962;2023-05-18T16:39:01;21.80;45.60
1063;DHT22;520;50.932;6.962;2023-05-18T16:41:58;21.90;45.30
1063;DHT22;520;50.932;6.962;2023-05-18T16:45:39;21.90;45.20
1063;DHT22;520;50.932;6.962;2023-05-18T16:48:46;21.90;45.10
1063;DHT22;520;50.932;6.962;2023-05-18T16:52:25;21.90;45.20
1063;DHT22;520;50.932;6.962;2023-05-18T16:56:28;21.70;45.00
1063;DHT22;520;50.932;6.962;2023-05-18T16:58:53;21.70;45.00
1063;DHT22;520;50.932;6.962;2023-05-18T17:02:06;21.70;45.40
1063;DHT22;520;50.932;6.962;2023-05-18T17:09:05;21.50;46.10
1063;DHT22;520;50.932;6.962;2023-05-18T17:12:18;21.50;45.50
1063;DHT22;520;50.932;6.962;2023-05-18T17:15:46;21.50;45.40
1063;DHT22;520;50.932;6.962;2023-05-18T17:18:53;21.20;46.00
1063;DHT22;520;50.932;6.962;2023-05-18T17:21:56;21.20;46.10
1063;DHT22;520;50.932;6.962;2023-05-18T17:24:48;21.20;46.10
1063;DHT22;520;50.932;6.962;2023-05-18T17:28:06;21.20;45.90
1063;DHT22;520;50.932;6.962;2023-05-18T17:31:20;21.00;46.50
1063;DHT22;520;50.932;6.962;2023-05-18T17:37:46;20.80;46.70
1063;DHT22;520;50.932;6.962;2023-05-18T17:40:36;20.80;47.10
1063;DHT22;520;50.932;6.962;2023-05-18T17:43:34;20.90;46.60
1063;DHT22;520;50.932;6.962;2023-05-18T17:50:27;20.70;47.00
1063;DHT22;520;50.932;6.962;2023-05-18T17:53:31;20.70;47.50
1063;DHT22;520;50.932;6.962;2023-05-18T17:56:32;20.60;47.20
1063;DHT22;520;50.932;6.962;2023-05-18T17:59:54;20.60;47.10
1063;DHT22;520;50.932;6.962;2023-05-18T18:06:39;20.40;47.40
1063;DHT22;520;50.932;6.962;2023-05-18T18:10:01;20.30;48.10
1063;DHT22;520;50.932;6.962;2023-05-18T18:13:26;20.30;48.00
1063;DHT22;520;50.932;6.962;2023-05-18T18:16:50;20.30;47.90
1063;DHT22;520;50.932;6.962;2023-05-18T18:19:54;20.00;48.20
1063;DHT22;520;50.932;6.962;2023-05-18T18:27:11;19.80;47.70
1063;DHT22;520;50.932;6.962;2023-05-18T18:35:18;19.70;48.60
1063;DHT22;520;50.932;6.962;2023-05-18T18:38:28;19.60;48.60
1063;DHT22;520;50.932;6.962;2023-05-18T18:44:19;19.60;48.70
1063;DHT22;520;50.932;6.962;2023-05-18T18:47:02;19.50;48.60
1063;DHT22;520;50.932;6.962;2023-05-18T18:50:36;19.30;48.90
1063;DHT22;520;50.932;6.962;2023-05-18T18:56:40;19.30;49.60
1063;DHT22;520;50.932;6.962;2023-05-18T18:59:47;19.30;49.50
1063;DHT22;520;50.932;6.962;2023-05-18T19:02:45;19.20;49.50
1063;DHT22;520;50.932;6.962;2023-05-18T19:05:28;19.10;50.10
1063;DHT22;520;50.932;6.962;2023-05-18T19:08:08;19.10;50.50
1063;DHT22;520;50.932;6.962;2023-05-18T19:11:22;19.10;50.90
1063;DHT22;520;50.932;6.962;2023-05-18T19:14:47;19.00;50.60
1063;DHT22;520;50.932;6.962;2023-05-18T19:21:15;18.70;50.80
1063;DHT22;520;50.932;6.962;2023-05-18T19:24:21;18.80;50.50
1063;DHT22;520;50.932;6.962;2023-05-18T19:30:44;18.70;50.40
1063;DHT22;520;50.932;6.962;2023-05-18T19:36:22;18.80;50.40
1063;DHT22;520;50.932;6.962;2023-05-18T19:39:38;18.80;50.70
1063;DHT22;520;50.932;6.962;2023-05-18T19:46:10;18.50;51.00
1063;DHT22;520;50.932;6.962;2023-05-18T19:52:49;18.30;51.80
1063;DHT22;520;50.932;6.962;2023-05-18T19:56:01;18.30;52.30
1063;DHT22;520;50.932;6.962;2023-05-18T20:07:02;18.20;51.70
1063;DHT22;520;50.932;6.962;2023-05-18T20:11:02;18.10;52.10
1063;DHT22;520;50.932;6.962;2023-05-18T20:17:58;18.00;52.20
1063;DHT22;520;50.932;6.962;2023-05-18T20:21:06;17.80;52.60
1063;DHT22;520;50.932;6.962;2023-05-18T20:24:44;17.80;52.80
1063;DHT22;520;50.932;6.962;2023-05-18T20:27:40;17.90;52.90
1063;DHT22;520;50.932;6.962;2023-05-18T20:30:53;17.90;52.50
1063;DHT22;520;50.932;6.962;2023-05-18T20:33:36;17.60;52.80
1063;DHT22;520;50.932;6.962;2023-05-18T20:37:16;17.70;53.30
1063;DHT22;520;50.932;6.962;2023-05-18T20:40:00;17.70;53.60
1063;DHT22;520;50.932;6.962;2023-05-18T20:42:44;17.70;52.80
1063;DHT22;520;50.932;6.962;2023-05-18T20:48:52;17.60;53.20
1063;DHT22;520;50.932;6.962;2023-05-18T20:52:19;17.60;53.00
1063;DHT22;520;50.932;6.962;2023-05-18T20:55:09;17.40;53.30
1063;DHT22;520;50.932;6.962;2023-05-18T21:09:22;17.10;54.00
1063;DHT22;520;50.932;6.962;2023-05-18T21:19:24;17.00;54.00
1063;DHT22;520;50.932;6.962;2023-05-18T21:22:22;17.00;54.30
1063;DHT22;520;50.932;6.962;2023-05-18T21:25:41;16.90;54.50
1063;DHT22;520;50.932;6.962;2023-05-18T21:28:52;16.90;54.60
1063;DHT22;520;50.932;6.962;2023-05-18T21:31:52;16.90;54.80
1063;DHT22;520;50.932;6.962;2023-05-18T21:34:22;16.90;54.90
1063;DHT22;520;50.932;6.962;2023-05-18T21:43:57;16.60;55.50
1063;DHT22;520;50.932;6.962;2023-05-18T21:47:02;16.60;55.60
1063;DHT22;520;50.932;6.962;2023-05-18T21:50:14;16.80;55.50
1063;DHT22;520;50.932;6.962;2023-05-18T21:53:29;16.50;55.60
1063;DHT22;520;50.932;6.962;2023-05-18T21:56:26;16.60;55.80
1063;DHT22;520;50.932;6.962;2023-05-18T21:59:40;16.50;55.90
1063;DHT22;520;50.932;6.962;2023-05-18T22:02:32;16.50;55.80
1063;DHT22;520;50.932;6.962;2023-05-18T22:05:38;16.50;56.60
1063;DHT22;520;50.932;6.962;2023-05-18T22:08:43;16.40;56.20
1063;DHT22;520;50.932;6.962;2023-05-18T22:11:54;16.40;56.30
1063;DHT22;520;50.932;6.962;2023-05-18T22:18:39;16.20;56.60
1063;DHT22;520;50.932;6.962;2023-05-18T22:21:53;16.20;57.00
1063;DHT22;520;50.932;6.962;2023-05-18T22:25:16;16.20;57.00
1063;DHT22;520;50.932;6.962;2023-05-18T22:34:53;16.30;57.00
1063;DHT22;520;50.932;6.962;2023-05-18T22:37:56;16.20;57.30
1063;DHT22;520;50.932;6.962;2023-05-18T22:41:03;16.10;57.70
1063;DHT22;520;50.932;6.962;2023-05-18T22:44:39;16.20;57.40
1063;DHT22;520;50.932;6.962;2023-05-18T22:47:20;16.20;57.50
1063;DHT22;520;50.932;6.962;2023-05-18T22:50:15;16.00;57.60
1063;DHT22;520;50.932;6.962;2023-05-18T22:53:57;16.00;57.70
1063;DHT22;520;50.932;6.962;2023-05-18T23:08:42;15.80;58.30
1063;DHT22;520;50.932;6.962;2023-05-18T23:19:18;15.70;58.80
1063;DHT22;520;50.932;6.962;2023-05-18T23:26:20;15.70;58.80
1063;DHT22;520;50.932;6.962;2023-05-18T23:29:52;15.60;59.00
1063;DHT22;520;50.932;6.962;2023-05-18T23:33:31;15.60;58.80
1063;DHT22;520;50.932;6.962;2023-05-18T23:36:35;15.50;59.40
1063;DHT22;520;50.932;6.962;2023-05-18T23:39:36;15.60;59.50
1063;DHT22;520;50.932;6.962;2023-05-18T23:46:07;15.60;59.40
1063;DHT22;520;50.932;6.962;2023-05-18T23:49:12;15.60;59.50
1063;DHT22;520;50.932;6.962;2023-05-18T23:52:34;15.60;59.40
1063;DHT22;520;50.932;6.962;2023-05-18T23:56:07;15.60;59.20
1063;DHT22;520;50.932;6.962;2023-05-18T23:59:03;15.60;59.40
